RKSS/GMP METAR and TAF weather

Enter ICAO airport designator
Station Type Date Time Source
RKSS METAR 2019/10/15 18:00 UTC NOAA

RKSS 151800Z 34003KT 8000 NSC 09/08 Q1028 NOSIG


Station Type Date Time Source
RKSS Decoded METAR 2019/10/15 18:00 UTC NOAA

Seoul / Kimp'O International Airport, Korea, South (RKSS) 37-33N 126-48E 18M
Oct 15, 2019 - 02:00 PM EDT / 2019.10.15 1800 UTC
Wind: from the NNW (340 degrees) at 3 MPH (3 KT):0
Visibility: 4 mile(s):0
Temperature: 48 F (9 C)
Dew Point: 46 F (8 C)
Relative Humidity: 93%
Pressure (altimeter): 30.36 in. Hg (1028 hPa)
ob: RKSS 151800Z 34003KT 8000 NSC 09/08 Q1028 NOSIG
cycle: 18

Station Type Date Time Source
RKSS TAF 2019/10/15 18:08 UTC NOAA

TAF RKSS 151700Z 1518/1624 02005KT 6000 NSC TN06/1521Z TX20/1605Z TN09/1621Z
BECMG 1519/1520 12005KT 4200 BR
BECMG 1521/1522 6000 NSW
BECMG 1601/1602 30006KT 9999 FEW030 BKN120
BECMG 1618/1619 02005KT 4200 BR
BECMG 1621/1622 6000 NSW

Example: see airport list